createdAt,value
2019-01-28T00:04:01.566Z,4.55
2019-01-28T00:06:30.174Z,4.58
2019-01-28T00:08:58.761Z,4.49
2019-01-28T00:11:27.590Z,4.51
2019-01-28T00:13:56.273Z,4.57
2019-01-28T00:16:24.827Z,4.61
2019-01-28T00:18:53.394Z,4.61
2019-01-28T00:21:22.253Z,4.62
2019-01-28T00:23:50.806Z,4.67
2019-01-28T00:26:19.332Z,4.60
2019-01-28T00:28:47.862Z,4.55
2019-01-28T00:31:16.385Z,4.58
2019-01-28T00:33:44.855Z,4.59
2019-01-28T00:36:13.470Z,4.57
2019-01-28T00:38:42.036Z,4.57
2019-01-28T00:41:10.629Z,4.49
2019-01-28T00:43:39.183Z,4.48
2019-01-28T00:46:07.993Z,4.49
2019-01-28T00:48:36.402Z,4.47
2019-01-28T00:51:05.059Z,4.48
2019-01-28T00:53:33.637Z,4.50
2019-01-28T00:56:02.146Z,4.46
2019-01-28T00:58:30.603Z,4.46
2019-01-28T01:00:59.160Z,4.54
2019-01-28T01:03:27.705Z,4.51
2019-01-28T01:05:56.455Z,4.52
2019-01-28T01:08:24.912Z,4.50
2019-01-28T01:10:53.453Z,4.50
2019-01-28T01:13:21.920Z,4.48
2019-01-28T01:18:44.762Z,4.50
2019-01-28T01:21:13.266Z,4.49
2019-01-28T01:23:42.052Z,4.51
2019-01-28T01:26:10.638Z,4.55
2019-01-28T01:28:39.151Z,4.56
2019-01-28T01:31:07.606Z,4.52
2019-01-28T01:33:36.169Z,4.56
2019-01-28T01:36:04.648Z,4.53
2019-01-28T01:38:33.152Z,4.54
2019-01-28T01:41:01.739Z,4.49
2019-01-28T01:43:30.744Z,4.50
2019-01-28T01:45:59.289Z,4.44
2019-01-28T01:48:27.757Z,4.42
2019-01-28T01:50:56.313Z,4.39
2019-01-28T01:53:24.943Z,4.32
2019-01-28T01:55:53.528Z,4.33
2019-01-28T01:58:22.009Z,4.35
2019-01-28T02:00:50.558Z,4.28
2019-01-28T02:03:19.231Z,4.27
2019-01-28T02:05:48.094Z,4.32
2019-01-28T02:08:17.046Z,4.25
2019-01-28T02:10:46.007Z,4.27
2019-01-28T02:13:14.490Z,4.28
2019-01-28T02:15:43.049Z,4.30
2019-01-28T02:18:11.581Z,4.24
2019-01-28T02:20:40.204Z,4.24
2019-01-28T02:23:08.837Z,4.24
2019-01-28T02:25:37.487Z,4.25
2019-01-28T02:28:05.934Z,4.31
2019-01-28T02:31:14.404Z,4.29
2019-01-28T02:33:42.944Z,4.29
2019-01-28T02:36:11.564Z,4.37
2019-01-28T02:38:40.057Z,4.32
2019-01-28T02:41:08.579Z,4.34
2019-01-28T02:43:37.135Z,4.38
2019-01-28T02:46:06.026Z,4.38
2019-01-28T02:48:34.585Z,4.35
2019-01-28T02:51:03.145Z,4.31
2019-01-28T02:53:31.670Z,4.30
2019-01-28T02:56:00.160Z,4.22
2019-01-28T02:58:28.736Z,4.27
2019-01-28T03:00:57.355Z,4.31
2019-01-28T03:03:25.903Z,4.28
2019-01-28T03:05:54.502Z,4.32
2019-01-28T03:08:23.037Z,4.26
2019-01-28T03:10:51.538Z,4.23
2019-01-28T03:13:20.028Z,4.14
2019-01-28T03:15:48.564Z,4.10
2019-01-28T03:18:17.310Z,4.06
2019-01-28T03:20:45.802Z,4.03
2019-01-28T03:23:14.675Z,3.88
2019-01-28T03:25:43.265Z,3.89
2019-01-28T03:28:11.808Z,3.90
2019-01-28T03:30:40.392Z,3.95
2019-01-28T03:33:08.954Z,4.01
2019-01-28T03:35:37.510Z,4.08
2019-01-28T03:38:06.068Z,4.05
2019-01-28T03:40:34.671Z,3.98
2019-01-28T03:43:03.272Z,3.94
2019-01-28T03:45:31.785Z,3.88
2019-01-28T03:48:00.356Z,3.87
2019-01-28T03:50:28.973Z,3.86
2019-01-28T03:52:57.593Z,3.83
2019-01-28T03:55:26.087Z,3.80
2019-01-28T03:57:54.553Z,3.84
2019-01-28T04:01:03.053Z,3.90
2019-01-28T04:03:31.592Z,3.85
2019-01-28T04:06:00.184Z,3.70
2019-01-28T04:08:28.754Z,3.76
2019-01-28T04:10:57.264Z,3.70
2019-01-28T04:13:25.752Z,3.65
2019-01-28T04:15:54.169Z,3.70
2019-01-28T04:18:22.709Z,3.61
2019-01-28T04:20:51.228Z,3.61
2019-01-28T04:23:19.764Z,3.56
2019-01-28T04:25:48.266Z,3.56
2019-01-28T04:28:16.799Z,3.41
2019-01-28T04:30:45.316Z,3.41
2019-01-28T04:33:13.905Z,3.49
2019-01-28T04:35:42.528Z,3.47
2019-01-28T04:38:11.001Z,3.45
2019-01-28T04:40:39.560Z,3.35
2019-01-28T04:43:08.106Z,3.38
2019-01-28T04:45:36.624Z,3.48
2019-01-28T04:48:05.207Z,3.28
2019-01-28T04:50:33.788Z,3.28
2019-01-28T04:53:02.638Z,3.19
2019-01-28T04:55:31.101Z,3.08
2019-01-28T04:57:59.564Z,3.14
2019-01-28T05:00:28.205Z,3.21
2019-01-28T05:02:57.090Z,3.20
2019-01-28T05:05:25.604Z,3.19
2019-01-28T05:07:54.107Z,3.11
2019-01-28T05:10:22.661Z,3.22
2019-01-28T05:12:51.150Z,3.12
2019-01-28T05:15:59.870Z,3.17
2019-01-28T05:18:28.427Z,3.23
2019-01-28T05:20:56.965Z,3.30
2019-01-28T05:23:44.795Z,3.31
2019-01-28T05:26:13.247Z,3.34
2019-01-28T05:28:41.893Z,3.30
2019-01-28T05:31:10.453Z,3.26
2019-01-28T05:33:39.089Z,3.21
2019-01-28T05:36:07.676Z,3.20
2019-01-28T05:38:36.357Z,3.21
2019-01-28T05:41:05.146Z,3.23
2019-01-28T05:43:33.763Z,3.27
2019-01-28T05:46:02.727Z,3.19
2019-01-28T05:48:31.247Z,3.14
2019-01-28T05:50:59.853Z,3.09
2019-01-28T05:53:28.216Z,3.05
2019-01-28T05:55:56.861Z,3.01
2019-01-28T05:58:25.385Z,2.93
2019-01-28T06:00:53.963Z,2.83
2019-01-28T06:03:36.692Z,2.83
2019-01-28T06:05:52.760Z,2.82
2019-01-28T06:08:21.321Z,2.79
2019-01-28T06:10:49.774Z,2.65
2019-01-28T06:13:18.290Z,2.75
2019-01-28T06:15:46.765Z,2.77
2019-01-28T06:18:15.303Z,2.75
2019-01-28T06:20:43.903Z,2.72
2019-01-28T06:26:21.977Z,2.66
2019-01-28T06:28:50.993Z,2.54
2019-01-28T06:31:19.531Z,2.55
2019-01-28T06:33:48.096Z,2.52
2019-01-28T06:36:16.580Z,2.51
2019-01-28T06:38:45.223Z,2.45
2019-01-28T06:41:13.788Z,2.50
2019-01-28T06:43:42.337Z,2.42
2019-01-28T06:46:10.886Z,2.40
2019-01-28T06:48:39.429Z,2.33
2019-01-28T06:51:08.040Z,2.24
2019-01-28T06:53:36.536Z,2.24
2019-01-28T06:56:05.120Z,2.24
2019-01-28T06:58:33.704Z,2.20
2019-01-28T07:01:02.265Z,2.23
2019-01-28T07:03:30.818Z,2.26
2019-01-28T07:05:59.360Z,2.18
2019-01-28T07:08:27.792Z,2.21
2019-01-28T07:10:56.389Z,2.22
2019-01-28T07:13:24.954Z,2.15
2019-01-28T07:15:53.965Z,2.19
2019-01-28T07:18:22.852Z,2.17
2019-01-28T07:20:51.434Z,2.23
2019-01-28T07:23:19.955Z,2.20
2019-01-28T07:25:48.411Z,2.21
2019-01-28T07:28:16.988Z,2.20
2019-01-28T07:30:45.582Z,2.19
2019-01-28T07:33:14.056Z,2.22
2019-01-28T07:35:42.746Z,2.23
2019-01-28T07:38:11.552Z,2.20
2019-01-28T07:40:40.280Z,2.19
2019-01-28T07:43:08.790Z,2.22
2019-01-28T07:46:17.677Z,2.08
2019-01-28T07:48:46.319Z,2.18
2019-01-28T07:51:14.878Z,2.16
2019-01-28T07:53:43.506Z,2.12
2019-01-28T07:56:12.498Z,2.10
2019-01-28T07:58:41.022Z,2.13
2019-01-28T08:01:09.708Z,2.13
2019-01-28T08:03:38.334Z,2.17
2019-01-28T08:06:47.959Z,2.14
2019-01-28T08:09:16.882Z,2.11
2019-01-28T08:11:45.509Z,2.13
2019-01-28T08:17:08.951Z,2.24
2019-01-28T08:19:37.431Z,2.23
2019-01-28T08:22:05.965Z,2.29
2019-01-28T08:24:34.624Z,2.36
2019-01-28T08:27:03.177Z,2.31
2019-01-28T08:29:31.690Z,2.28
2019-01-28T08:32:00.279Z,2.33
2019-01-28T08:34:28.793Z,2.34
2019-01-28T08:36:57.334Z,2.40
2019-01-28T08:39:25.794Z,2.47
2019-01-28T08:41:54.607Z,2.51
2019-01-28T08:44:23.196Z,2.46
2019-01-28T08:46:51.824Z,2.56
2019-01-28T08:49:20.391Z,2.53
2019-01-28T08:51:49.009Z,2.57
2019-01-28T08:54:17.446Z,2.59
2019-01-28T08:56:46.050Z,2.61
2019-01-28T08:59:14.519Z,2.61
2019-01-28T09:01:43.162Z,2.64
2019-01-28T09:04:11.673Z,2.75
2019-01-28T09:06:40.206Z,2.70
2019-01-28T09:09:48.899Z,2.76
2019-01-28T09:12:17.847Z,2.78
2019-01-28T09:14:46.477Z,2.88
2019-01-28T09:17:15.035Z,2.92
2019-01-28T09:19:43.671Z,3.02
2019-01-28T09:22:12.253Z,3.04
2019-01-28T09:24:40.769Z,3.12
2019-01-28T09:27:09.569Z,3.13
2019-01-28T09:29:38.168Z,3.22
2019-01-28T09:32:06.630Z,3.25
2019-01-28T09:34:35.215Z,3.22
2019-01-28T09:37:03.795Z,3.22
2019-01-28T09:39:32.692Z,3.27
2019-01-28T09:42:01.325Z,3.33
2019-01-28T09:44:29.875Z,3.32
2019-01-28T09:46:58.427Z,3.27
2019-01-28T09:49:26.932Z,3.30
2019-01-28T09:51:55.470Z,3.33
2019-01-28T09:54:24.047Z,3.31
2019-01-28T09:56:53.103Z,3.42
2019-01-28T09:59:21.729Z,3.47
2019-01-28T10:01:50.301Z,3.57
2019-01-28T10:04:18.903Z,3.61
2019-01-28T10:06:47.411Z,3.74
2019-01-28T10:09:16.039Z,3.73
2019-01-28T10:11:44.678Z,3.85
2019-01-28T10:14:13.255Z,3.85
2019-01-28T10:16:41.964Z,3.83
2019-01-28T10:19:10.583Z,3.85
2019-01-28T10:21:39.135Z,3.90
2019-01-28T10:24:07.743Z,3.89
2019-01-28T10:26:36.273Z,3.80
2019-01-28T10:29:45.146Z,3.85
2019-01-28T10:32:13.701Z,3.95
2019-01-28T10:34:42.469Z,3.99
2019-01-28T10:37:11.315Z,4.04
2019-01-28T10:39:39.872Z,4.04
2019-01-28T10:42:10.002Z,4.06
2019-01-28T10:44:38.755Z,4.13
2019-01-28T10:47:07.380Z,4.18
2019-01-28T10:49:35.904Z,4.09
2019-01-28T10:52:04.658Z,4.16
2019-01-28T10:54:33.175Z,4.22
2019-01-28T10:57:02.044Z,4.28
2019-01-28T10:59:30.708Z,4.36
2019-01-28T11:01:59.188Z,4.43
2019-01-28T11:04:27.668Z,4.51
2019-01-28T11:06:56.255Z,4.53
2019-01-28T11:09:24.903Z,4.47
2019-01-28T11:11:53.630Z,4.51
2019-01-28T11:14:22.623Z,4.52
2019-01-28T11:16:51.336Z,4.61
2019-01-28T11:19:19.980Z,4.83
2019-01-28T11:21:48.611Z,4.88
2019-01-28T11:24:17.078Z,4.97
2019-01-28T11:26:45.646Z,4.89
2019-01-28T11:29:14.222Z,4.89
2019-01-28T11:31:43.255Z,4.98
2019-01-28T11:34:11.891Z,5.04
2019-01-28T11:36:40.481Z,5.00
2019-01-28T11:39:49.069Z,5.02
2019-01-28T11:42:17.786Z,5.18
2019-01-28T11:44:46.528Z,5.55
2019-01-28T11:47:15.276Z,5.56
2019-01-28T11:49:43.927Z,5.64
2019-01-28T11:52:12.510Z,5.63
2019-01-28T11:54:41.131Z,5.53
2019-01-28T11:57:09.743Z,5.54
2019-01-28T11:59:38.274Z,5.50
2019-01-28T12:02:06.831Z,5.48
2019-01-28T12:04:35.294Z,5.39
2019-01-28T12:07:03.926Z,5.36
2019-01-28T12:09:32.510Z,5.35
2019-01-28T12:12:01.048Z,5.21
2019-01-28T12:14:29.638Z,5.27
2019-01-28T12:16:58.093Z,5.24
2019-01-28T12:19:26.626Z,5.23
2019-01-28T12:21:55.270Z,5.07
2019-01-28T12:24:23.776Z,4.98
2019-01-28T12:26:52.381Z,5.10
2019-01-28T12:29:21.001Z,5.04
2019-01-28T12:31:49.681Z,5.11
2019-01-28T12:34:18.410Z,5.19
2019-01-28T12:36:46.955Z,5.23
2019-01-28T12:39:15.558Z,5.34
2019-01-28T12:41:44.474Z,5.55
2019-01-28T12:44:13.039Z,5.81
2019-01-28T12:46:43.827Z,6.11
2019-01-28T12:49:12.468Z,6.20
2019-01-28T12:51:41.086Z,6.10
2019-01-28T12:54:09.706Z,6.02
2019-01-28T12:56:38.748Z,5.62
2019-01-28T12:59:09.063Z,5.71
2019-01-28T13:01:37.817Z,5.63
2019-01-28T13:04:06.359Z,5.61
2019-01-28T13:06:34.962Z,5.44
2019-01-28T13:11:58.624Z,5.48
2019-01-28T13:14:27.243Z,5.46
2019-01-28T13:16:55.896Z,5.43
2019-01-28T13:19:30.002Z,5.53
2019-01-28T13:21:54.947Z,5.51
2019-01-28T13:24:23.414Z,5.39
2019-01-28T13:26:52.031Z,5.34
2019-01-28T13:29:22.531Z,5.33
2019-01-28T13:31:51.106Z,5.30
2019-01-28T13:34:19.771Z,5.38
2019-01-28T13:36:48.316Z,5.40
2019-01-28T13:39:17.085Z,5.33
2019-01-28T13:41:45.776Z,5.36
2019-01-28T13:44:14.298Z,5.42
2019-01-28T13:46:44.774Z,5.40
2019-01-28T13:49:13.252Z,5.39
2019-01-28T13:51:41.922Z,5.36
2019-01-28T13:54:10.577Z,5.37
2019-01-28T13:56:39.204Z,5.42
2019-01-28T13:59:15.964Z,5.38
2019-01-28T14:01:38.319Z,5.39
2019-01-28T14:04:06.881Z,5.34
2019-01-28T14:06:35.538Z,5.23
2019-01-28T14:09:25.423Z,5.27
2019-01-28T14:11:54.114Z,5.24
2019-01-28T14:14:22.765Z,5.22
2019-01-28T14:16:51.399Z,5.23
2019-01-28T14:19:20.064Z,5.27
2019-01-28T14:21:48.756Z,5.25
2019-01-28T14:24:17.308Z,5.20
2019-01-28T14:26:45.803Z,5.25
2019-01-28T14:29:14.751Z,5.29
2019-01-28T14:31:43.329Z,5.34
2019-01-28T14:34:11.969Z,5.35
2019-01-28T14:36:40.570Z,5.42
2019-01-28T14:39:29.995Z,5.46
2019-01-28T14:41:58.780Z,5.53
2019-01-28T14:44:27.371Z,5.62
2019-01-28T14:46:55.987Z,5.67
2019-01-28T14:49:24.588Z,5.69
2019-01-28T14:51:53.130Z,5.70
2019-01-28T14:54:21.902Z,5.67
2019-01-28T14:56:52.139Z,5.58
2019-01-28T14:59:20.838Z,5.57
2019-01-28T15:01:49.367Z,5.45
2019-01-28T15:04:17.987Z,5.35
2019-01-28T15:06:46.570Z,5.33
2019-01-28T15:09:15.269Z,5.33
2019-01-28T15:11:43.805Z,5.27
2019-01-28T15:14:12.329Z,5.28
2019-01-28T15:16:41.016Z,5.20
2019-01-28T15:19:09.624Z,5.20
2019-01-28T15:21:38.151Z,5.15
2019-01-28T15:24:06.622Z,5.07
2019-01-28T15:26:35.455Z,4.90
2019-01-28T15:29:04.242Z,4.90
2019-01-28T15:31:32.939Z,4.68
2019-01-28T15:34:01.494Z,4.61
2019-01-28T15:36:30.238Z,4.46
2019-01-28T15:38:58.638Z,4.42
2019-01-28T15:41:27.257Z,4.37
2019-01-28T15:43:55.892Z,4.34
2019-01-28T15:46:24.780Z,4.37
2019-01-28T15:48:54.767Z,4.39
2019-01-28T15:51:23.403Z,4.32
2019-01-28T15:53:51.969Z,4.32
2019-01-28T15:56:20.487Z,4.30
2019-01-28T15:58:49.078Z,4.31
2019-01-28T16:01:17.766Z,4.36
2019-01-28T16:03:46.218Z,4.42
2019-01-28T16:06:27.143Z,4.39
2019-01-28T16:08:45.603Z,4.16
2019-01-28T16:11:14.419Z,4.09
2019-01-28T16:13:43.065Z,4.00
2019-01-28T16:24:22.199Z,3.87
2019-01-28T16:27:30.677Z,3.76
2019-01-28T16:29:59.349Z,3.67
2019-01-28T16:32:27.904Z,3.47
2019-01-28T16:34:56.649Z,3.43
2019-01-28T16:37:25.339Z,3.42
2019-01-28T16:39:53.911Z,3.32
2019-01-28T16:42:22.684Z,3.33
2019-01-28T16:44:51.906Z,3.27
2019-01-28T16:47:20.568Z,3.04
2019-01-28T16:50:10.881Z,3.04
2019-01-28T16:52:39.492Z,3.10
2019-01-28T17:10:24.477Z,3.38
2019-01-28T17:15:56.196Z,3.51
2019-01-28T17:18:24.857Z,3.41
2019-01-28T17:20:53.425Z,3.43
2019-01-28T17:23:22.065Z,3.41
2019-01-28T17:26:11.436Z,3.46
2019-01-28T17:28:40.086Z,3.52
2019-01-28T17:31:09.087Z,3.52
2019-01-28T17:33:39.111Z,3.57
2019-01-28T17:36:08.191Z,3.56
2019-01-28T17:38:36.792Z,3.63
2019-01-28T17:41:45.278Z,3.61
2019-01-28T17:44:13.942Z,3.62
2019-01-28T17:46:42.683Z,3.60
2019-01-28T17:49:11.332Z,3.61
2019-01-28T17:51:39.901Z,3.57
2019-01-28T17:54:08.792Z,3.43
2019-01-28T17:56:37.425Z,3.49
2019-01-28T17:59:06.148Z,3.41
2019-01-28T18:01:34.738Z,3.47
2019-01-28T18:04:03.318Z,3.55
2019-01-28T18:06:31.941Z,3.44
2019-01-28T18:09:00.733Z,3.38
2019-01-28T18:11:29.210Z,3.31
2019-01-28T18:13:57.875Z,3.41
2019-01-28T18:16:26.472Z,3.29
2019-01-28T18:22:01.784Z,3.34
2019-01-28T18:24:16.605Z,3.30
2019-01-28T18:31:51.050Z,3.29
2019-01-28T18:34:19.649Z,3.35
2019-01-28T18:36:48.259Z,3.32
2019-01-28T18:39:30.979Z,3.31
2019-01-28T18:41:47.459Z,3.22
2019-01-28T18:44:16.498Z,3.19
2019-01-28T18:46:45.020Z,3.17
2019-01-28T18:49:13.891Z,3.07
2019-01-28T18:51:42.808Z,3.18
2019-01-28T18:54:11.523Z,3.11
2019-01-28T18:57:20.345Z,2.88
2019-01-28T18:59:49.666Z,2.96
2019-01-28T19:05:47.728Z,2.99
2019-01-28T19:14:08.267Z,2.83
2019-01-28T19:16:56.211Z,2.83
2019-01-28T19:25:27.772Z,2.91
2019-01-28T19:28:06.984Z,2.96
2019-01-28T19:30:35.761Z,3.01
2019-01-28T19:36:12.708Z,3.10
2019-01-28T19:38:41.708Z,3.17
2019-01-28T19:41:10.184Z,3.12
2019-01-28T19:43:38.805Z,3.11
2019-01-28T19:46:07.363Z,3.15
2019-01-28T19:48:36.248Z,3.06
2019-01-28T19:51:15.779Z,3.12
2019-01-28T19:53:42.018Z,3.19
2019-01-28T19:56:10.558Z,3.17
2019-01-28T19:58:39.175Z,3.17
2019-01-28T20:01:47.971Z,3.20
2019-01-28T20:04:16.409Z,3.18
2019-01-28T20:06:44.961Z,3.23
2019-01-28T20:09:13.506Z,3.28
2019-01-28T20:14:16.215Z,3.38
2019-01-28T20:17:01.586Z,3.28
2019-01-28T20:19:17.170Z,3.19
2019-01-28T20:21:45.900Z,3.07
2019-01-28T20:24:14.588Z,3.11
2019-01-28T20:29:37.881Z,3.19
2019-01-28T20:32:06.384Z,3.24
2019-01-28T20:34:43.167Z,3.25
2019-01-28T20:37:05.476Z,3.25
2019-01-28T20:39:34.067Z,3.28
2019-01-28T20:42:02.504Z,3.24
2019-01-28T20:44:31.125Z,3.26
2019-01-28T20:46:59.660Z,3.25
2019-01-28T20:49:28.415Z,3.15
2019-01-28T20:51:56.991Z,3.22
2019-01-28T20:54:25.547Z,3.16
2019-01-28T20:56:54.142Z,3.27
2019-01-28T20:59:22.705Z,3.28
2019-01-28T21:01:51.160Z,3.34
2019-01-28T21:04:19.888Z,3.35
2019-01-28T21:06:48.487Z,3.30
2019-01-28T21:09:17.044Z,3.22
2019-01-28T21:11:45.607Z,3.28
2019-01-28T21:14:14.560Z,3.07
2019-01-28T21:16:43.296Z,3.05
2019-01-28T21:19:12.142Z,3.15
2019-01-28T21:21:41.895Z,3.20
2019-01-28T21:24:10.988Z,3.23
2019-01-28T21:26:39.516Z,3.27
2019-01-28T21:29:08.056Z,3.32
2019-01-28T21:31:36.647Z,3.36
2019-01-28T21:34:05.248Z,3.38
2019-01-28T21:39:32.542Z,3.38
2019-01-28T21:42:01.114Z,3.38
2019-01-28T21:44:29.680Z,3.39
2019-01-28T21:46:58.127Z,3.31
2019-01-28T21:49:26.653Z,3.35
2019-01-28T21:51:55.230Z,3.33
2019-01-28T21:54:25.476Z,3.35
2019-01-28T21:56:54.409Z,3.34
2019-01-28T21:59:23.050Z,3.33
2019-01-28T22:01:51.550Z,3.27
2019-01-28T22:04:20.098Z,3.32
2019-01-28T22:06:48.636Z,3.36
2019-01-28T22:10:01.621Z,3.37
2019-01-28T22:12:35.675Z,3.39
2019-01-28T22:15:44.231Z,3.40
2019-01-28T22:18:13.080Z,3.43
2019-01-28T22:20:41.972Z,3.28
2019-01-28T22:23:10.535Z,3.30
2019-01-28T22:25:39.077Z,3.18
2019-01-28T22:28:07.620Z,3.16
2019-01-28T22:30:36.221Z,3.22
2019-01-28T22:33:25.495Z,3.24
2019-01-28T22:35:54.057Z,3.25
2019-01-28T22:38:22.783Z,3.28
2019-01-28T22:40:51.343Z,3.30
2019-01-28T22:43:19.867Z,3.32
2019-01-28T22:45:48.411Z,3.33
2019-01-28T22:48:16.926Z,3.32
2019-01-28T22:50:45.564Z,3.33
2019-01-28T22:53:14.164Z,3.35
2019-01-28T22:55:42.636Z,3.36
2019-01-28T22:58:11.275Z,3.33
2019-01-28T23:01:19.737Z,3.26
2019-01-28T23:03:48.169Z,3.23
2019-01-28T23:06:35.867Z,3.25
2019-01-28T23:09:44.315Z,3.24
2019-01-28T23:12:12.788Z,3.23
2019-01-28T23:14:41.555Z,3.15
2019-01-28T23:17:10.755Z,3.18
2019-01-28T23:19:39.284Z,3.18
2019-01-28T23:22:16.020Z,3.18
2019-01-28T23:24:38.022Z,3.17
2019-01-28T23:27:06.654Z,3.20
2019-01-28T23:29:35.166Z,3.23
2019-01-28T23:32:03.739Z,3.22
2019-01-28T23:34:32.675Z,3.21
2019-01-28T23:37:01.290Z,3.20
2019-01-28T23:39:29.819Z,3.20
2019-01-28T23:41:58.323Z,3.13
2019-01-28T23:44:26.939Z,3.20
2019-01-28T23:46:55.569Z,3.20
2019-01-28T23:49:24.185Z,3.24
2019-01-28T23:51:52.708Z,3.16
2019-01-28T23:54:21.247Z,3.19
2019-01-28T23:56:49.844Z,3.22
2019-01-28T23:59:18.337Z,3.25
